createdAt,value
2019-04-03T00:01:10.449Z,97787.41
2019-04-03T00:03:39.845Z,97794.98
2019-04-03T00:06:08.887Z,97792.13
2019-04-03T00:08:37.966Z,97785.64
2019-04-03T00:11:09.450Z,97784.52
2019-04-03T00:13:41.255Z,97775.34
2019-04-03T00:16:09.966Z,97768.72
2019-04-03T00:18:40.299Z,97768.72
2019-04-03T00:21:09.328Z,97780.58
2019-04-03T00:23:38.434Z,97776.34
2019-04-03T00:26:07.737Z,97770.01
2019-04-03T00:28:37.002Z,97780.80
2019-04-03T00:31:06.937Z,97777.05
2019-04-03T00:33:37.167Z,97775.58
2019-04-03T00:36:07.118Z,97774.39
2019-04-03T00:38:36.843Z,97777.84
2019-04-03T00:41:07.149Z,97773.58
2019-04-03T00:43:37.238Z,97769.84
2019-04-03T00:46:07.838Z,97767.04
2019-04-03T00:48:37.635Z,97770.56
2019-04-03T00:51:07.537Z,97761.80
2019-04-03T00:53:36.740Z,97760.69
2019-04-03T00:56:05.039Z,97760.69
2019-04-03T00:58:42.038Z,97753.33
2019-04-03T01:01:12.533Z,97760.28
2019-04-03T01:03:41.683Z,97755.05
2019-04-03T01:06:10.634Z,97755.00
2019-04-03T01:08:39.498Z,97755.00
2019-04-03T01:11:08.610Z,97757.53
2019-04-03T01:13:37.837Z,97763.20
2019-04-03T01:16:07.494Z,97763.20
2019-04-03T01:18:37.590Z,97759.85
2019-04-03T01:21:07.189Z,97759.85
2019-04-03T01:23:38.192Z,97761.73
2019-04-03T01:26:09.247Z,97760.73
2019-04-03T01:28:41.458Z,97759.14
2019-04-03T01:31:09.059Z,97760.50
2019-04-03T01:33:38.470Z,97749.91
2019-04-03T01:36:07.585Z,97751.14
2019-04-03T01:38:37.527Z,97752.11
2019-04-03T01:41:07.224Z,97752.11
2019-04-03T01:43:37.915Z,97758.38
2019-04-03T01:46:07.867Z,97759.19
2019-04-03T01:48:37.788Z,97749.99
2019-04-03T01:51:06.925Z,97735.95
2019-04-03T01:53:36.998Z,97744.89
2019-04-03T01:56:07.138Z,97741.93
2019-04-03T01:58:36.970Z,97741.96
2019-04-03T02:01:08.018Z,97741.70
2019-04-03T02:03:36.868Z,97743.79
2019-04-03T02:06:06.679Z,97739.94
2019-04-03T02:08:36.478Z,97741.26
2019-04-03T02:11:06.607Z,97741.26
2019-04-03T02:13:36.552Z,97729.35
2019-04-03T02:16:06.299Z,97726.09
2019-04-03T02:18:36.492Z,97726.09
2019-04-03T02:21:06.299Z,97736.69
2019-04-03T02:23:36.102Z,97736.39
2019-04-03T02:26:06.328Z,97731.78
2019-04-03T02:28:36.725Z,97730.97
2019-04-03T02:31:05.793Z,97730.16
2019-04-03T02:33:35.431Z,97730.33
2019-04-03T02:36:05.482Z,97726.17
2019-04-03T02:40:33.959Z,97730.27
2019-04-03T02:43:02.789Z,97733.08
2019-04-03T02:45:31.946Z,97739.52
2019-04-03T02:48:04.801Z,97734.07
2019-04-03T02:50:31.712Z,97736.33
2019-04-03T02:53:05.781Z,97736.33
2019-04-03T02:55:39.140Z,97733.87
2019-04-03T02:58:08.405Z,97737.00
2019-04-03T03:00:38.118Z,97739.98
2019-04-03T03:03:07.903Z,97742.05
2019-04-03T03:05:37.890Z,97744.91
2019-04-03T03:08:09.134Z,97743.92
2019-04-03T03:10:38.722Z,97747.63
2019-04-03T03:13:08.922Z,97747.63
2019-04-03T03:15:41.248Z,97752.35
2019-04-03T03:18:11.600Z,97749.91
2019-04-03T03:20:41.730Z,97749.38
2019-04-03T03:23:11.590Z,97749.38
2019-04-03T03:25:42.328Z,97739.73
2019-04-03T03:28:14.341Z,97739.73
2019-04-03T03:30:54.663Z,97740.97
2019-04-03T03:33:32.911Z,97735.39
2019-04-03T03:35:50.398Z,97735.39
2019-04-03T03:38:20.451Z,97737.05
2019-04-03T03:40:49.881Z,97739.79
2019-04-03T03:43:21.120Z,97737.31
2019-04-03T03:45:53.576Z,97739.23
2019-04-03T03:48:23.786Z,97732.29
2019-04-03T03:50:56.414Z,97732.29
2019-04-03T03:53:24.781Z,97727.34
2019-04-03T03:55:57.820Z,97739.87
2019-04-03T03:58:26.631Z,97736.28
2019-04-03T04:00:57.903Z,97731.30
2019-04-03T04:03:26.537Z,97728.79
2019-04-03T04:05:56.865Z,97717.97
2019-04-03T04:08:27.948Z,97716.61
2019-04-03T04:10:59.491Z,97712.41
2019-04-03T04:13:28.868Z,97718.80
2019-04-03T04:16:02.218Z,97715.77
2019-04-03T04:18:29.582Z,97716.02
2019-04-03T04:20:59.535Z,97712.88
2019-04-03T04:23:28.775Z,97708.48
2019-04-03T04:25:57.295Z,97708.48
2019-04-03T04:28:27.466Z,97713.45
2019-04-03T04:30:56.569Z,97713.23
2019-04-03T04:33:25.720Z,97710.66
2019-04-03T04:35:53.980Z,97710.66
2019-04-03T04:38:24.811Z,97707.33
2019-04-03T04:40:54.789Z,97711.84
2019-04-03T04:43:25.384Z,97707.14
2019-04-03T04:45:55.190Z,97707.12
2019-04-03T04:48:24.335Z,97699.30
2019-04-03T04:50:55.095Z,97691.58
2019-04-03T04:53:25.491Z,97686.02
2019-04-03T04:55:55.388Z,97686.02
2019-04-03T04:58:25.718Z,97694.40
2019-04-03T05:00:55.144Z,97688.23
2019-04-03T05:03:24.524Z,97689.06
2019-04-03T05:05:57.357Z,97688.53
2019-04-03T05:08:26.290Z,97688.53
2019-04-03T05:10:56.076Z,97685.47
2019-04-03T05:13:25.823Z,97681.89
2019-04-03T05:15:55.235Z,97679.95
2019-04-03T05:18:24.508Z,97677.77
2019-04-03T05:20:54.152Z,97665.80
2019-04-03T05:23:23.875Z,97665.80
2019-04-03T05:25:54.680Z,97674.33
2019-04-03T05:28:24.925Z,97674.70
2019-04-03T05:30:54.370Z,97673.08
2019-04-03T05:33:23.596Z,97676.37
2019-04-03T05:35:52.832Z,97662.09
2019-04-03T05:38:22.629Z,97662.09
2019-04-03T05:40:52.223Z,97670.95
2019-04-03T05:43:21.562Z,97672.58
2019-04-03T05:45:50.922Z,97664.25
2019-04-03T05:48:20.668Z,97664.25
2019-04-03T05:50:49.559Z,97673.94
2019-04-03T05:53:19.092Z,97668.78
2019-04-03T05:55:48.731Z,97668.78
2019-04-03T05:58:18.524Z,97676.19
2019-04-03T06:00:48.097Z,97664.11
2019-04-03T06:03:17.629Z,97665.93
2019-04-03T06:05:46.937Z,97676.66
2019-04-03T06:08:16.162Z,97675.48
2019-04-03T06:10:45.715Z,97676.89
2019-04-03T06:13:17.285Z,97672.66
2019-04-03T06:15:47.404Z,97673.55
2019-04-03T06:18:17.581Z,97665.20
2019-04-03T06:20:47.755Z,97661.56
2019-04-03T06:23:17.133Z,97660.20
2019-04-03T06:25:48.011Z,97660.61
2019-04-03T06:28:17.996Z,97654.88
2019-04-03T06:30:48.419Z,97646.39
2019-04-03T06:33:18.762Z,97644.70
2019-04-03T06:35:47.708Z,97644.70
2019-04-03T06:38:17.048Z,97638.13
2019-04-03T06:40:46.487Z,97627.55
2019-04-03T06:43:17.319Z,97629.20
2019-04-03T06:45:46.250Z,97629.20
2019-04-03T06:48:15.962Z,97621.64
2019-04-03T06:50:45.567Z,97625.03
2019-04-03T06:53:15.064Z,97615.03
2019-04-03T06:55:44.631Z,97615.03
2019-04-03T06:58:12.985Z,97610.88
2019-04-03T07:00:42.488Z,97605.89
2019-04-03T07:03:11.064Z,97608.03
2019-04-03T07:05:41.939Z,97603.09
2019-04-03T07:08:12.950Z,97602.46
2019-04-03T07:10:54.195Z,97601.48
2019-04-03T07:13:16.424Z,97606.48
2019-04-03T07:15:45.635Z,97599.72
2019-04-03T07:18:14.029Z,97601.68
2019-04-03T07:20:44.065Z,97599.38
2019-04-03T07:23:13.748Z,97605.72
2019-04-03T07:25:45.123Z,97608.23
2019-04-03T07:28:14.909Z,97596.61
2019-04-03T07:30:44.216Z,97603.44
2019-04-03T07:33:13.352Z,97608.77
2019-04-03T07:35:42.700Z,97611.82
2019-04-03T07:38:11.381Z,97597.61
2019-04-03T07:40:42.065Z,97602.27
2019-04-03T07:43:11.542Z,97601.03
2019-04-03T07:45:43.684Z,97600.55
2019-04-03T07:48:12.109Z,97600.55
2019-04-03T07:50:42.371Z,97597.74
2019-04-03T07:53:11.514Z,97595.98
2019-04-03T07:55:43.362Z,97601.36
2019-04-03T07:58:13.051Z,97603.34
2019-04-03T08:00:42.407Z,97589.41
2019-04-03T08:03:11.479Z,97596.73
2019-04-03T08:05:40.959Z,97593.65
2019-04-03T08:08:10.585Z,97591.46
2019-04-03T08:10:40.390Z,97598.80
2019-04-03T08:13:10.096Z,97598.80
2019-04-03T08:15:42.707Z,97608.61
2019-04-03T08:18:12.494Z,97612.56
2019-04-03T08:20:42.111Z,97615.41
2019-04-03T08:23:14.761Z,97620.45
2019-04-03T08:25:47.180Z,97614.26
2019-04-03T08:28:15.165Z,97610.86
2019-04-03T08:30:45.047Z,97614.86
2019-04-03T08:33:17.548Z,97616.86
2019-04-03T08:35:45.571Z,97625.41
2019-04-03T08:38:15.304Z,97627.64
2019-04-03T08:40:44.848Z,97627.64
2019-04-03T08:43:14.402Z,97623.38
2019-04-03T08:45:44.497Z,97627.47
2019-04-03T08:48:16.397Z,97646.30
2019-04-03T08:50:47.181Z,97638.97
2019-04-03T08:53:17.074Z,97632.54
2019-04-03T08:55:46.995Z,97633.81
2019-04-03T08:58:17.191Z,97628.20
2019-04-03T09:00:46.835Z,97637.92
2019-04-03T09:03:16.470Z,97633.93
2019-04-03T09:05:50.543Z,97629.09
2019-04-03T09:08:18.817Z,97629.09
2019-04-03T09:10:49.324Z,97631.33
2019-04-03T09:13:22.600Z,97629.59
2019-04-03T09:15:50.468Z,97619.05
2019-04-03T09:18:19.810Z,97619.05
2019-04-03T09:20:49.021Z,97622.89
2019-04-03T09:23:18.776Z,97614.36
2019-04-03T09:25:48.231Z,97615.58
2019-04-03T09:28:17.662Z,97616.03
2019-04-03T09:30:48.259Z,97610.54
2019-04-03T09:33:16.803Z,97605.69
2019-04-03T09:35:46.356Z,97599.17
2019-04-03T09:38:15.576Z,97587.80
2019-04-03T09:40:47.117Z,97595.42
2019-04-03T09:43:15.202Z,97595.42
2019-04-03T09:45:44.702Z,97586.28
2019-04-03T09:48:14.200Z,97584.37
2019-04-03T09:50:46.361Z,97584.48
2019-04-03T09:53:15.570Z,97574.59
2019-04-03T09:55:45.008Z,97567.27
2019-04-03T09:58:14.766Z,97565.92
2019-04-03T10:00:44.326Z,97563.31
2019-04-03T10:03:14.301Z,97552.30
2019-04-03T10:05:43.100Z,97552.30
2019-04-03T10:08:12.957Z,97546.72
2019-04-03T10:10:47.167Z,97558.51
2019-04-03T10:13:16.845Z,97555.06
2019-04-03T10:15:46.293Z,97537.98
2019-04-03T10:18:15.601Z,97539.42
2019-04-03T10:20:48.530Z,97537.17
2019-04-03T10:23:16.158Z,97537.17
2019-04-03T10:25:45.822Z,97530.66
2019-04-03T10:28:15.300Z,97527.13
2019-04-03T10:30:44.710Z,97529.70
2019-04-03T10:33:14.415Z,97519.46
2019-04-03T10:35:50.106Z,97519.73
2019-04-03T10:38:19.527Z,97506.66
2019-04-03T10:40:49.349Z,97491.67
2019-04-03T10:43:18.760Z,97491.67
2019-04-03T10:45:49.436Z,97491.97
2019-04-03T10:48:18.792Z,97490.32
2019-04-03T10:50:48.294Z,97490.32
2019-04-03T10:53:19.996Z,97495.19
2019-04-03T10:55:49.238Z,97495.19
2019-04-03T10:58:18.908Z,97488.08
2019-04-03T11:00:49.536Z,97479.09
2019-04-03T11:03:19.170Z,97474.58
2019-04-03T11:05:49.642Z,97474.58
2019-04-03T11:08:19.556Z,97474.55
2019-04-03T11:10:48.614Z,97467.62
2019-04-03T11:13:17.867Z,97451.76
2019-04-03T11:15:47.885Z,97451.76
2019-04-03T11:18:20.479Z,97445.73
2019-04-03T11:20:48.455Z,97444.69
2019-04-03T11:23:18.090Z,97428.89
2019-04-03T11:25:49.153Z,97418.96
2019-04-03T11:28:20.680Z,97418.96
2019-04-03T11:30:52.837Z,97433.05
2019-04-03T11:33:21.829Z,97426.48
2019-04-03T11:35:53.322Z,97404.00
2019-04-03T11:38:27.616Z,97399.92
2019-04-03T11:40:53.784Z,97394.70
2019-04-03T11:43:23.105Z,97394.70
2019-04-03T11:45:52.625Z,97387.03
2019-04-03T11:48:21.859Z,97382.23
2019-04-03T11:50:51.301Z,97382.23
2019-04-03T11:53:20.623Z,97383.62
2019-04-03T11:55:50.181Z,97381.09
2019-04-03T11:58:21.144Z,97378.78
2019-04-03T12:00:52.195Z,97380.48
2019-04-03T12:03:21.991Z,97370.94
2019-04-03T12:05:51.747Z,97369.36
2019-04-03T12:08:53.526Z,97361.30
2019-04-03T12:11:26.042Z,97343.36
2019-04-03T12:13:55.594Z,97343.36
2019-04-03T12:16:26.211Z,97352.56
2019-04-03T12:18:57.122Z,97343.91
2019-04-03T12:21:27.038Z,97317.42
2019-04-03T12:23:58.170Z,97317.42
2019-04-03T12:26:28.673Z,97319.97
2019-04-03T12:28:57.447Z,97316.16
2019-04-03T12:31:26.663Z,97318.09
2019-04-03T12:34:02.704Z,97317.25
2019-04-03T12:36:28.226Z,97313.91
2019-04-03T12:38:57.602Z,97306.42
2019-04-03T12:41:27.468Z,97304.11
2019-04-03T12:43:57.961Z,97304.11
2019-04-03T12:46:37.011Z,97305.64
2019-04-03T12:49:09.791Z,97294.14
2019-04-03T12:51:39.078Z,97302.91
2019-04-03T12:54:12.773Z,97289.25
2019-04-03T12:56:42.922Z,97287.48
2019-04-03T12:59:13.870Z,97301.73
2019-04-03T13:01:43.302Z,97275.59
2019-04-03T13:04:13.266Z,97280.81
2019-04-03T13:09:26.454Z,97272.03
2019-04-03T13:11:58.881Z,97277.55
2019-04-03T13:14:31.448Z,97269.06
2019-04-03T13:17:01.526Z,97258.08
2019-04-03T13:19:30.799Z,97258.08
2019-04-03T13:22:00.304Z,97255.02
2019-04-03T13:24:29.618Z,97255.33
2019-04-03T13:26:59.605Z,97240.75
2019-04-03T13:29:28.384Z,97240.75
2019-04-03T13:31:57.582Z,97207.68
2019-04-03T13:34:26.730Z,97222.17
2019-04-03T13:36:56.297Z,97222.17
2019-04-03T13:39:25.447Z,97211.81
2019-04-03T13:41:55.167Z,97210.19
2019-04-03T13:44:26.913Z,97201.67
2019-04-03T13:46:55.618Z,97218.84
2019-04-03T13:49:24.753Z,97217.22
2019-04-03T13:51:54.009Z,97217.22
2019-04-03T13:54:27.219Z,97220.57
2019-04-03T13:56:56.774Z,97212.06
2019-04-03T13:59:27.020Z,97201.96
2019-04-03T14:01:57.463Z,97196.41
2019-04-03T14:04:26.832Z,97187.71
2019-04-03T14:06:56.576Z,97196.21
2019-04-03T14:09:26.060Z,97187.08
2019-04-03T14:11:55.817Z,97187.08
2019-04-03T14:14:24.717Z,97190.80
2019-04-03T14:16:55.893Z,97184.58
2019-04-03T14:19:25.370Z,97184.58
2019-04-03T14:21:55.368Z,97168.48
2019-04-03T14:24:37.741Z,97166.05
2019-04-03T14:26:55.501Z,97173.27
2019-04-03T14:29:24.497Z,97168.27
2019-04-03T14:31:53.389Z,97173.67
2019-04-03T14:34:22.406Z,97165.41
2019-04-03T14:36:52.692Z,97169.96
2019-04-03T14:39:22.049Z,97169.47
2019-04-03T14:41:53.307Z,97174.58
2019-04-03T14:44:22.799Z,97187.27
2019-04-03T14:46:51.785Z,97182.16
2019-04-03T14:49:26.453Z,97171.88
2019-04-03T14:51:55.499Z,97167.55
2019-04-03T14:54:25.245Z,97163.36
2019-04-03T14:56:53.873Z,97161.41
2019-04-03T14:59:23.791Z,97165.02
2019-04-03T15:01:52.952Z,97163.95
2019-04-03T15:04:22.087Z,97163.73
2019-04-03T15:07:01.641Z,97168.17
2019-04-03T15:09:21.738Z,97168.91
2019-04-03T15:11:50.191Z,97172.73
2019-04-03T15:14:21.898Z,97153.28
2019-04-03T15:16:51.979Z,97153.51
2019-04-03T15:19:21.289Z,97154.57
2019-04-03T15:21:52.542Z,97164.36
2019-04-03T15:24:22.108Z,97181.65
2019-04-03T15:26:53.448Z,97181.65
2019-04-03T15:29:22.933Z,97189.84
2019-04-03T15:31:53.588Z,97187.00
2019-04-03T15:34:27.271Z,97198.80
2019-04-03T15:36:54.936Z,97189.24
2019-04-03T15:39:24.135Z,97188.28
2019-04-03T15:41:54.113Z,97207.86
2019-04-03T15:44:23.897Z,97206.92
2019-04-03T15:46:53.403Z,97231.37
2019-04-03T15:49:25.618Z,97236.25
2019-04-03T15:51:53.677Z,97242.98
2019-04-03T15:54:26.157Z,97237.66
2019-04-03T15:56:55.489Z,97259.39
2019-04-03T15:59:25.331Z,97288.63
2019-04-03T16:01:55.847Z,97349.39
2019-04-03T16:04:27.026Z,97349.39
2019-04-03T16:06:56.778Z,97383.20
2019-04-03T16:09:25.751Z,97405.64
2019-04-03T16:12:01.060Z,97386.81
2019-04-03T16:14:31.880Z,97351.33
2019-04-03T16:17:02.533Z,97465.72
2019-04-03T16:19:33.017Z,97472.80
2019-04-03T16:22:02.731Z,97318.78
2019-04-03T16:24:32.539Z,97284.66
2019-04-03T16:29:46.990Z,97392.67
2019-04-03T16:32:16.721Z,97411.09
2019-04-03T16:34:46.742Z,97423.97
2019-04-03T16:37:15.303Z,97427.66
2019-04-03T16:39:45.413Z,97445.21
2019-04-03T16:42:15.983Z,97446.33
2019-04-03T16:44:46.114Z,97466.42
2019-04-03T16:47:15.816Z,97451.74
2019-04-03T16:49:46.008Z,97444.88
2019-04-03T16:52:15.828Z,97441.73
2019-04-03T16:54:49.633Z,97446.41
2019-04-03T16:57:21.466Z,97458.11
2019-04-03T16:59:49.771Z,97447.87
2019-04-03T17:02:19.700Z,97451.48
2019-04-03T17:04:50.302Z,97461.72
2019-04-03T17:07:20.592Z,97455.52
2019-04-03T17:09:51.985Z,97475.61
2019-04-03T17:12:20.966Z,97475.61
2019-04-03T17:14:50.091Z,97474.73
2019-04-03T17:17:19.001Z,97452.56
2019-04-03T17:19:50.943Z,97458.81
2019-04-03T17:22:19.932Z,97467.49
2019-04-03T17:24:51.786Z,97463.69
2019-04-03T17:27:19.987Z,97465.71
2019-04-03T17:29:49.202Z,97465.28
2019-04-03T17:32:18.573Z,97474.37
2019-04-03T17:34:48.702Z,97457.26
2019-04-03T17:37:20.278Z,97444.14
2019-04-03T17:39:48.006Z,97434.39
2019-04-03T17:42:17.570Z,97433.22
2019-04-03T17:44:46.858Z,97437.91
2019-04-03T17:47:19.229Z,97433.34
2019-04-03T17:49:47.795Z,97434.95
2019-04-03T17:52:16.992Z,97446.05
2019-04-03T17:54:46.854Z,97464.28
2019-04-03T17:57:17.568Z,97462.05
2019-04-03T17:59:48.839Z,97456.36
2019-04-03T18:02:18.295Z,97458.09
2019-04-03T18:04:48.885Z,97457.39
2019-04-03T18:07:18.449Z,97452.93
2019-04-03T18:09:47.599Z,97464.06
2019-04-03T18:12:21.141Z,97460.20
2019-04-03T18:14:46.965Z,97462.05
2019-04-03T18:17:19.212Z,97470.80
2019-04-03T18:19:47.358Z,97471.56
2019-04-03T18:22:16.805Z,97473.00
2019-04-03T18:24:46.845Z,97470.35
2019-04-03T18:27:16.040Z,97460.55
2019-04-03T18:29:46.494Z,97459.23
2019-04-03T18:32:16.631Z,97467.80
2019-04-03T18:34:56.939Z,97467.80
2019-04-03T18:37:26.016Z,97477.91
2019-04-03T18:39:55.011Z,97471.47
2019-04-03T18:42:24.325Z,97474.59
2019-04-03T18:44:53.577Z,97477.39
2019-04-03T18:47:22.583Z,97484.96
2019-04-03T18:49:52.008Z,97483.59
2019-04-03T18:52:21.434Z,97488.45
2019-04-03T18:54:50.445Z,97492.27
2019-04-03T18:57:19.620Z,97499.83
2019-04-03T18:59:48.059Z,97499.19
2019-04-03T19:02:17.592Z,97498.94
2019-04-03T19:06:13.436Z,97503.34
2019-04-03T19:08:41.685Z,97502.41
2019-04-03T19:11:10.601Z,97501.95
2019-04-03T19:13:44.578Z,97505.44
2019-04-03T19:16:11.881Z,97505.44
2019-04-03T19:18:41.147Z,97502.01
2019-04-03T19:21:23.707Z,97506.80
2019-04-03T19:23:49.482Z,97504.48
2019-04-03T19:26:13.951Z,97497.33
2019-04-03T19:28:43.119Z,97501.96
2019-04-03T19:31:14.563Z,97496.31
2019-04-03T19:33:45.426Z,97486.98
2019-04-03T19:36:16.153Z,97493.52
2019-04-03T19:38:45.981Z,97493.52
2019-04-03T19:41:15.792Z,97491.64
2019-04-03T19:43:45.824Z,97487.13
2019-04-03T19:46:16.465Z,97488.23
2019-04-03T19:48:46.624Z,97486.04
2019-04-03T19:51:16.580Z,97492.13
2019-04-03T19:53:58.422Z,97494.58
2019-04-03T19:56:17.762Z,97494.58
2019-04-03T20:01:18.820Z,97474.19
2019-04-03T20:03:48.105Z,97468.31
2019-04-03T20:06:17.486Z,97473.56
2019-04-03T20:08:50.357Z,97473.66
2019-04-03T20:11:19.575Z,97473.38
2019-04-03T20:13:51.762Z,97454.77
2019-04-03T20:16:24.284Z,97454.77
2019-04-03T20:18:56.268Z,97447.52
2019-04-03T20:21:25.650Z,97439.44
2019-04-03T20:23:57.703Z,97444.45
2019-04-03T20:26:27.304Z,97431.95
2019-04-03T20:29:02.130Z,97434.02
2019-04-03T20:31:35.747Z,97434.02
2019-04-03T20:34:05.471Z,97443.32
2019-04-03T20:36:35.060Z,97446.78
2019-04-03T20:39:08.128Z,97449.39
2019-04-03T20:43:11.198Z,97443.25
2019-04-03T20:45:39.815Z,97451.12
2019-04-03T20:48:08.734Z,97447.23
2019-04-03T20:50:38.154Z,97438.05
2019-04-03T20:53:08.946Z,97423.67
2019-04-03T20:55:38.034Z,97427.81
2019-04-03T20:58:07.060Z,97439.25
2019-04-03T21:00:35.995Z,97441.63
2019-04-03T21:03:05.117Z,97441.66
2019-04-03T21:05:34.104Z,97447.08
2019-04-03T21:08:03.038Z,97446.64
2019-04-03T21:10:32.062Z,97450.92
2019-04-03T21:13:01.281Z,97440.63
2019-04-03T21:18:10.934Z,97441.09
2019-04-03T21:20:43.576Z,97445.83
2019-04-03T21:23:12.122Z,97445.01
2019-04-03T21:25:41.627Z,97448.11
2019-04-03T21:28:10.969Z,97462.73
2019-04-03T21:30:43.432Z,97462.73
2019-04-03T21:33:12.440Z,97458.62
2019-04-03T21:35:41.592Z,97471.58
2019-04-03T21:38:11.378Z,97459.34
2019-04-03T21:42:49.564Z,97463.21
2019-04-03T21:45:18.991Z,97442.16
2019-04-03T21:47:49.701Z,97442.16
2019-04-03T21:50:19.261Z,97455.78
2019-04-03T21:52:53.873Z,97455.78
2019-04-03T21:55:23.072Z,97460.98
2019-04-03T21:57:52.014Z,97460.75
2019-04-03T22:01:17.427Z,97458.09
2019-04-03T22:03:50.525Z,97456.77
2019-04-03T22:06:18.491Z,97458.89
2019-04-03T22:08:47.738Z,97464.22
2019-04-03T22:11:27.055Z,97459.58
2019-04-03T22:13:56.106Z,97455.59
2019-04-03T22:16:25.577Z,97455.52
2019-04-03T22:18:55.380Z,97462.55
2019-04-03T22:21:24.606Z,97458.88
2019-04-03T22:23:52.943Z,97458.88
2019-04-03T22:26:21.931Z,97461.23
2019-04-03T22:28:51.032Z,97453.79
2019-04-03T22:31:22.837Z,97440.48
2019-04-03T22:33:52.452Z,97440.41
2019-04-03T22:36:24.439Z,97433.97
2019-04-03T22:38:53.581Z,97439.11
2019-04-03T22:41:22.923Z,97437.30
2019-04-03T22:43:52.064Z,97443.73
2019-04-03T22:46:22.011Z,97445.09
2019-04-03T22:48:51.262Z,97445.07
2019-04-03T22:51:20.413Z,97451.66
2019-04-03T22:53:49.609Z,97456.98
2019-04-03T22:56:18.968Z,97450.26
2019-04-03T22:58:48.734Z,97450.26
2019-04-03T23:01:19.062Z,97443.77
2019-04-03T23:03:49.348Z,97431.31
2019-04-03T23:06:19.435Z,97435.33
2019-04-03T23:08:49.233Z,97435.33
2019-04-03T23:11:18.479Z,97438.96
2019-04-03T23:13:48.565Z,97421.25
2019-04-03T23:16:18.497Z,97421.25
2019-04-03T23:18:47.696Z,97424.81
2019-04-03T23:21:16.877Z,97394.80
2019-04-03T23:23:47.048Z,97394.80
2019-04-03T23:26:16.054Z,97402.70
2019-04-03T23:28:44.994Z,97382.65
2019-04-03T23:31:13.958Z,97391.75
2019-04-03T23:33:42.955Z,97393.12
2019-04-03T23:36:12.412Z,97388.88
2019-04-03T23:38:43.007Z,97385.38
2019-04-03T23:41:11.980Z,97382.09
2019-04-03T23:43:40.940Z,97375.67
2019-04-03T23:46:12.766Z,97362.45
2019-04-03T23:48:42.500Z,97355.94
2019-04-03T23:51:22.583Z,97348.23
2019-04-03T23:53:42.941Z,97348.23
2019-04-03T23:56:12.053Z,97366.20
2019-04-03T23:58:42.354Z,97355.87
